createdAt,value
2022-09-11T00:01:16.487Z,15.90
2022-09-11T00:03:45.200Z,15.90
2022-09-11T00:06:14.773Z,16.00
2022-09-11T00:08:42.637Z,15.90
2022-09-11T00:11:17.450Z,15.90
2022-09-11T00:13:50.113Z,16.00
2022-09-11T00:16:44.811Z,16.00
2022-09-11T00:19:19.956Z,16.00
2022-09-11T00:21:47.911Z,15.90
2022-09-11T00:24:14.862Z,15.90
2022-09-11T00:26:42.603Z,15.90
2022-09-11T00:29:10.101Z,15.90
2022-09-11T00:31:38.572Z,15.90
2022-09-11T00:34:06.862Z,15.90
2022-09-11T00:36:36.216Z,15.90
2022-09-11T00:39:03.909Z,15.90
2022-09-11T00:41:38.102Z,15.90
2022-09-11T00:44:28.297Z,15.80
2022-09-11T00:46:58.292Z,15.80
2022-09-11T00:49:32.934Z,15.80
2022-09-11T00:52:22.469Z,15.80
2022-09-11T00:54:56.523Z,15.80
2022-09-11T00:57:27.098Z,15.90
2022-09-11T00:59:58.412Z,15.90
2022-09-11T01:02:28.359Z,15.90
2022-09-11T01:04:56.796Z,15.80
2022-09-11T01:07:25.940Z,15.90
2022-09-11T01:09:53.792Z,15.80
2022-09-11T01:12:28.725Z,15.80
2022-09-11T01:15:05.910Z,15.80
2022-09-11T01:17:39.130Z,15.80
2022-09-11T01:20:30.066Z,15.80
2022-09-11T01:23:32.825Z,15.80
2022-09-11T01:26:18.918Z,15.80
2022-09-11T01:29:10.619Z,15.80
2022-09-11T01:31:46.909Z,15.80
2022-09-11T01:34:36.024Z,15.80
2022-09-11T01:37:08.522Z,15.80
2022-09-11T01:39:42.423Z,15.80
2022-09-11T01:42:16.833Z,15.60
2022-09-11T01:44:51.488Z,15.60
2022-09-11T01:47:20.768Z,15.60
2022-09-11T01:50:05.176Z,15.60
2022-09-11T01:52:53.387Z,15.60
2022-09-11T01:55:36.516Z,15.60
2022-09-11T01:58:08.203Z,15.60
2022-09-11T02:00:41.208Z,15.60
2022-09-11T02:03:17.435Z,15.60
2022-09-11T02:05:51.132Z,15.60
2022-09-11T02:08:45.197Z,15.70
2022-09-11T02:11:14.286Z,15.70
2022-09-11T02:14:10.356Z,15.70
2022-09-11T02:16:45.377Z,15.70
2022-09-11T02:19:16.569Z,15.70
2022-09-11T02:21:45.172Z,15.70
2022-09-11T02:24:12.041Z,15.70
2022-09-11T02:26:42.920Z,15.60
2022-09-11T02:29:11.675Z,15.70
2022-09-11T02:31:39.996Z,15.60
2022-09-11T02:34:06.939Z,15.60
2022-09-11T02:36:40.536Z,15.60
2022-09-11T02:39:16.368Z,15.60
2022-09-11T02:41:43.874Z,15.50
2022-09-11T02:44:36.483Z,15.50
2022-09-11T02:47:24.978Z,15.50
2022-09-11T02:50:22.017Z,15.50
2022-09-11T02:52:52.215Z,15.60
2022-09-11T02:55:48.805Z,15.60
2022-09-11T02:58:33.111Z,15.60
2022-09-11T03:01:01.695Z,15.60
2022-09-11T03:03:41.345Z,15.60
2022-09-11T03:06:21.483Z,15.60
2022-09-11T03:08:48.702Z,15.70
2022-09-11T03:11:20.171Z,15.70
2022-09-11T03:13:49.097Z,15.70
2022-09-11T03:16:17.051Z,15.60
2022-09-11T03:18:44.608Z,15.60
2022-09-11T03:21:11.799Z,15.50
2022-09-11T03:23:38.736Z,15.60
2022-09-11T03:26:05.663Z,15.60
2022-09-11T03:28:34.106Z,15.70
2022-09-11T03:31:07.819Z,15.60
2022-09-11T03:33:35.112Z,15.60
2022-09-11T03:36:02.248Z,15.70
2022-09-11T03:38:29.184Z,15.70
2022-09-11T03:40:56.012Z,15.70
2022-09-11T03:43:23.346Z,15.80
2022-09-11T03:45:54.191Z,15.70
2022-09-11T03:48:21.322Z,15.70
2022-09-11T03:50:49.172Z,15.80
2022-09-11T03:53:16.012Z,15.80
2022-09-11T03:55:44.912Z,15.70
2022-09-11T03:58:12.388Z,15.70
2022-09-11T04:00:46.578Z,15.80
2022-09-11T04:03:15.895Z,15.70
2022-09-11T04:05:55.951Z,15.80
2022-09-11T04:08:22.884Z,15.80
2022-09-11T04:10:49.868Z,15.70
2022-09-11T04:13:16.687Z,15.70
2022-09-11T04:15:43.530Z,15.60
2022-09-11T04:18:10.392Z,15.60
2022-09-11T04:20:41.352Z,15.60
2022-09-11T04:23:09.131Z,15.60
2022-09-11T04:25:36.093Z,15.60
2022-09-11T04:28:05.010Z,15.60
2022-09-11T04:30:34.622Z,15.60
2022-09-11T04:33:02.367Z,15.60
2022-09-11T04:35:29.945Z,15.60
2022-09-11T04:37:58.591Z,15.70
2022-09-11T04:40:26.619Z,15.60
2022-09-11T04:42:53.592Z,15.70
2022-09-11T04:45:20.392Z,15.70
2022-09-11T04:47:47.597Z,15.70
2022-09-11T04:50:14.553Z,15.70
2022-09-11T04:52:45.180Z,15.70
2022-09-11T04:55:11.979Z,15.70
2022-09-11T04:57:38.738Z,15.70
2022-09-11T05:00:06.927Z,15.70
2022-09-11T05:02:37.498Z,15.70
2022-09-11T05:05:05.340Z,15.70
2022-09-11T05:07:32.191Z,15.70
2022-09-11T05:10:00.853Z,15.70
2022-09-11T05:12:28.675Z,15.70
2022-09-11T05:14:55.546Z,15.70
2022-09-11T05:17:22.756Z,15.70
2022-09-11T05:19:49.738Z,15.70
2022-09-11T05:22:16.795Z,15.60
2022-09-11T05:24:49.729Z,15.60
2022-09-11T05:27:17.184Z,15.70
2022-09-11T05:29:44.726Z,15.60
2022-09-11T05:32:14.011Z,15.70
2022-09-11T05:34:41.621Z,15.70
2022-09-11T05:37:11.065Z,15.60
2022-09-11T05:39:43.030Z,15.70
2022-09-11T05:42:11.836Z,15.70
2022-09-11T05:44:41.927Z,15.70
2022-09-11T05:47:08.858Z,15.70
2022-09-11T05:49:35.783Z,15.70
2022-09-11T05:52:03.413Z,15.70
2022-09-11T05:54:32.429Z,15.60
2022-09-11T05:57:06.912Z,15.60
2022-09-11T05:59:36.656Z,15.60
2022-09-11T06:02:04.662Z,15.70
2022-09-11T06:04:40.383Z,15.70
2022-09-11T06:07:08.440Z,15.80
2022-09-11T06:09:37.072Z,15.70
2022-09-11T06:12:04.822Z,15.70
2022-09-11T06:14:32.118Z,15.70
2022-09-11T06:17:01.681Z,15.80
2022-09-11T06:19:33.843Z,15.80
2022-09-11T06:22:03.035Z,15.80
2022-09-11T06:24:34.324Z,15.80
2022-09-11T06:27:01.300Z,15.80
2022-09-11T06:29:32.354Z,15.80
2022-09-11T06:32:00.896Z,15.80
2022-09-11T06:34:31.775Z,15.80
2022-09-11T06:37:01.934Z,15.70
2022-09-11T06:39:28.782Z,15.70
2022-09-11T06:41:57.880Z,15.80
2022-09-11T06:44:28.607Z,15.80
2022-09-11T06:46:59.448Z,15.70
2022-09-11T06:49:26.881Z,15.70
2022-09-11T06:52:13.468Z,15.80
2022-09-11T06:54:47.325Z,15.80
2022-09-11T06:57:16.070Z,15.80
2022-09-11T06:59:43.147Z,15.80
2022-09-11T07:02:10.625Z,15.70
2022-09-11T07:04:38.262Z,15.70
2022-09-11T07:07:05.534Z,15.70
2022-09-11T07:09:33.334Z,15.80
2022-09-11T07:12:01.243Z,15.80
2022-09-11T07:14:30.553Z,15.80
2022-09-11T07:17:07.360Z,15.80
2022-09-11T07:19:38.673Z,15.80
2022-09-11T07:22:05.876Z,15.80
2022-09-11T07:24:34.821Z,15.80
2022-09-11T07:27:01.837Z,15.80
2022-09-11T07:29:32.729Z,15.90
2022-09-11T07:31:59.927Z,15.90
2022-09-11T07:34:28.709Z,15.90
2022-09-11T07:36:58.545Z,15.90
2022-09-11T07:39:28.977Z,15.90
2022-09-11T07:42:01.289Z,15.90
2022-09-11T07:44:32.340Z,16.00
2022-09-11T07:47:04.259Z,16.00
2022-09-11T07:49:36.408Z,16.00
2022-09-11T07:52:04.425Z,16.00
2022-09-11T07:54:51.275Z,16.00
2022-09-11T07:57:21.995Z,16.00
2022-09-11T07:59:49.895Z,16.10
2022-09-11T08:02:18.178Z,16.00
2022-09-11T08:04:45.220Z,16.10
2022-09-11T08:07:12.258Z,16.10
2022-09-11T08:09:39.099Z,16.20
2022-09-11T08:12:06.903Z,16.20
2022-09-11T08:14:36.991Z,16.30
2022-09-11T08:17:24.283Z,16.40
2022-09-11T08:19:52.349Z,16.40
2022-09-11T08:22:19.541Z,16.40
2022-09-11T08:24:48.508Z,16.40
2022-09-11T08:27:18.387Z,16.40
2022-09-11T08:29:46.139Z,16.40
2022-09-11T08:32:13.620Z,16.40
2022-09-11T08:34:40.880Z,16.40
2022-09-11T08:37:08.104Z,16.50
2022-09-11T08:39:35.892Z,16.60
2022-09-11T08:42:16.107Z,16.60
2022-09-11T08:44:56.548Z,16.60
2022-09-11T08:47:38.508Z,16.60
2022-09-11T08:50:22.052Z,16.60
2022-09-11T08:52:50.121Z,16.60
2022-09-11T08:55:35.452Z,16.60
2022-09-11T08:58:16.095Z,16.60
2022-09-11T09:01:04.422Z,16.60
2022-09-11T09:03:53.009Z,16.70
2022-09-11T09:06:25.918Z,16.80
2022-09-11T09:09:22.041Z,16.80
2022-09-11T09:12:16.055Z,16.80
2022-09-11T09:14:54.869Z,16.80
2022-09-11T09:17:53.867Z,16.80
2022-09-11T09:20:42.487Z,16.80
2022-09-11T09:23:24.646Z,16.90
2022-09-11T09:25:54.303Z,16.80
2022-09-11T09:28:21.140Z,16.80
2022-09-11T09:30:57.879Z,16.90
2022-09-11T09:33:37.250Z,17.00
2022-09-11T09:36:26.186Z,17.10
2022-09-11T09:38:54.096Z,17.10
2022-09-11T09:41:39.164Z,17.10
2022-09-11T09:44:27.972Z,17.10
2022-09-11T09:46:56.135Z,17.20
2022-09-11T09:49:27.642Z,17.20
2022-09-11T09:52:02.218Z,17.30
2022-09-11T09:54:34.472Z,17.20
2022-09-11T09:57:05.021Z,17.20
2022-09-11T09:59:43.495Z,17.20
2022-09-11T10:02:10.284Z,17.20
2022-09-11T10:04:37.282Z,17.20
2022-09-11T10:07:14.073Z,17.20
2022-09-11T10:09:50.218Z,17.30
2022-09-11T10:12:26.466Z,17.30
2022-09-11T10:15:01.367Z,17.30
2022-09-11T10:17:33.376Z,17.30
2022-09-11T10:20:18.561Z,17.30
2022-09-11T10:22:49.475Z,17.40
2022-09-11T10:25:16.331Z,17.40
2022-09-11T10:28:04.454Z,17.40
2022-09-11T10:30:33.827Z,17.50
2022-09-11T10:33:04.284Z,17.50
2022-09-11T10:35:33.585Z,17.60
2022-09-11T10:38:17.769Z,17.70
2022-09-11T10:41:08.827Z,17.70
2022-09-11T10:43:38.377Z,17.70
2022-09-11T10:46:28.699Z,17.80
2022-09-11T10:49:15.810Z,17.80
2022-09-11T10:51:57.142Z,17.90
2022-09-11T10:54:39.874Z,17.80
2022-09-11T10:57:21.565Z,17.80
2022-09-11T11:00:11.675Z,17.80
2022-09-11T11:02:42.665Z,17.80
2022-09-11T11:05:19.911Z,17.80
2022-09-11T11:08:06.253Z,17.80
2022-09-11T11:10:39.245Z,17.90
2022-09-11T11:13:14.595Z,17.90
2022-09-11T11:16:03.968Z,17.90
2022-09-11T11:19:02.663Z,17.90
2022-09-11T11:22:01.894Z,18.00
2022-09-11T11:24:28.647Z,18.00
2022-09-11T11:27:32.866Z,18.00
2022-09-11T11:30:15.942Z,18.00
2022-09-11T11:32:48.724Z,18.00
2022-09-11T11:35:20.750Z,18.00
2022-09-11T11:37:50.104Z,18.10
2022-09-11T11:40:27.305Z,18.10
2022-09-11T11:43:02.867Z,18.10
2022-09-11T11:45:38.940Z,18.20
2022-09-11T11:48:25.395Z,18.20
2022-09-11T11:51:00.431Z,18.20
2022-09-11T11:53:42.166Z,18.20
2022-09-11T11:56:14.986Z,18.20
2022-09-11T11:58:57.967Z,18.20
2022-09-11T12:01:37.098Z,18.20
2022-09-11T12:04:45.116Z,18.30
2022-09-11T12:07:33.071Z,18.30
2022-09-11T12:10:01.629Z,18.30
2022-09-11T12:12:43.015Z,18.20
2022-09-11T12:15:19.860Z,18.20
2022-09-11T12:17:49.979Z,18.20
2022-09-11T12:20:34.562Z,18.20
2022-09-11T12:23:01.952Z,18.20
2022-09-11T12:25:28.670Z,18.20
2022-09-11T12:28:10.782Z,18.20
2022-09-11T12:31:05.122Z,18.20
2022-09-11T12:33:41.129Z,18.30
2022-09-11T12:36:29.677Z,18.30
2022-09-11T12:39:05.346Z,18.30
2022-09-11T12:41:36.380Z,18.30
2022-09-11T12:44:04.798Z,18.30
2022-09-11T12:46:31.679Z,18.40
2022-09-11T12:49:21.037Z,18.40
2022-09-11T12:51:55.115Z,18.50
2022-09-11T12:54:33.515Z,18.60
2022-09-11T12:57:07.427Z,18.60
2022-09-11T12:59:43.609Z,18.60
2022-09-11T13:02:34.363Z,18.70
2022-09-11T13:05:02.754Z,18.70
2022-09-11T13:07:35.507Z,18.80
2022-09-11T13:10:08.070Z,18.80
2022-09-11T13:12:50.164Z,18.80
2022-09-11T13:15:43.795Z,18.80
2022-09-11T13:18:32.136Z,18.80
2022-09-11T13:21:04.917Z,18.80
2022-09-11T13:23:32.781Z,18.80
2022-09-11T13:26:01.083Z,18.80
2022-09-11T13:28:31.705Z,18.90
2022-09-11T13:31:04.750Z,19.00
2022-09-11T13:33:32.576Z,19.00
2022-09-11T13:36:02.696Z,19.00
2022-09-11T13:38:31.350Z,19.10
2022-09-11T13:41:06.248Z,19.10
2022-09-11T13:43:42.411Z,19.10
2022-09-11T13:46:24.318Z,19.10
2022-09-11T13:48:55.861Z,19.10
2022-09-11T13:51:27.304Z,19.00
2022-09-11T13:54:28.819Z,19.00
2022-09-11T13:56:55.543Z,19.00
2022-09-11T13:59:44.565Z,19.00
2022-09-11T14:02:40.672Z,19.00
2022-09-11T14:05:16.564Z,19.00
2022-09-11T14:08:07.502Z,18.90
2022-09-11T14:10:43.470Z,19.00
2022-09-11T14:13:20.035Z,18.90
2022-09-11T14:16:11.413Z,18.90
2022-09-11T14:18:46.184Z,18.90
2022-09-11T14:21:16.201Z,18.90
2022-09-11T14:23:51.703Z,19.00
2022-09-11T14:26:21.147Z,19.00
2022-09-11T14:29:00.336Z,19.00
2022-09-11T14:31:37.132Z,19.00
2022-09-11T14:34:17.859Z,19.10
2022-09-11T14:36:46.774Z,19.10
2022-09-11T14:39:39.636Z,19.20
2022-09-11T14:42:09.069Z,19.20
2022-09-11T14:44:39.459Z,19.30
2022-09-11T14:47:13.745Z,19.30
2022-09-11T14:49:40.595Z,19.30
2022-09-11T14:52:10.014Z,19.30
2022-09-11T14:54:37.478Z,19.40
2022-09-11T14:57:20.792Z,19.40
2022-09-11T14:59:47.971Z,19.30
2022-09-11T15:02:21.352Z,19.40
2022-09-11T15:04:49.320Z,19.40
2022-09-11T15:07:17.408Z,19.40
2022-09-11T15:09:44.240Z,19.40
2022-09-11T15:12:13.142Z,19.40
2022-09-11T15:14:58.490Z,19.40
2022-09-11T15:17:30.476Z,19.40
2022-09-11T15:20:00.435Z,19.40
2022-09-11T15:22:28.086Z,19.40
2022-09-11T15:24:56.553Z,19.40
2022-09-11T15:27:25.198Z,19.40
2022-09-11T15:29:52.354Z,19.40
2022-09-11T15:32:20.518Z,19.40
2022-09-11T15:34:47.759Z,19.40
2022-09-11T15:37:16.875Z,19.40
2022-09-11T15:39:44.204Z,19.40
2022-09-11T15:42:11.611Z,19.40
2022-09-11T15:44:38.519Z,19.30
2022-09-11T15:47:06.195Z,19.30
2022-09-11T15:49:39.232Z,19.30
2022-09-11T15:52:06.011Z,19.30
2022-09-11T15:54:32.826Z,19.30
2022-09-11T15:56:59.821Z,19.30
2022-09-11T15:59:26.680Z,19.30
2022-09-11T16:01:53.859Z,19.30
2022-09-11T16:04:22.977Z,19.30
2022-09-11T16:06:50.387Z,19.20
2022-09-11T16:09:29.301Z,19.20
2022-09-11T16:11:56.394Z,19.20
2022-09-11T16:14:28.533Z,19.20
2022-09-11T16:16:55.970Z,19.20
2022-09-11T16:19:27.817Z,19.20
2022-09-11T16:21:56.970Z,19.20
2022-09-11T16:24:25.655Z,19.10
2022-09-11T16:26:56.040Z,19.10
2022-09-11T16:29:25.605Z,19.10
2022-09-11T16:31:52.789Z,19.10
2022-09-11T16:34:19.581Z,19.10
2022-09-11T16:36:46.818Z,19.10
2022-09-11T16:39:16.559Z,19.10
2022-09-11T16:41:43.545Z,19.10
2022-09-11T16:44:14.596Z,19.10
2022-09-11T16:46:42.364Z,19.00
2022-09-11T16:49:10.313Z,19.00
2022-09-11T16:51:37.265Z,19.00
2022-09-11T16:54:04.339Z,19.00
2022-09-11T16:56:31.376Z,19.00
2022-09-11T16:58:58.749Z,19.00
2022-09-11T17:01:27.463Z,19.00
2022-09-11T17:03:57.232Z,19.00
2022-09-11T17:06:29.998Z,18.90
2022-09-11T17:08:59.849Z,18.90
2022-09-11T17:11:28.464Z,18.90
2022-09-11T17:13:55.506Z,18.90
2022-09-11T17:16:26.001Z,18.80
2022-09-11T17:18:56.457Z,18.80
2022-09-11T17:21:24.666Z,18.80
2022-09-11T17:23:55.476Z,18.70
2022-09-11T17:26:23.237Z,18.70
2022-09-11T17:28:51.820Z,18.70
2022-09-11T17:31:19.721Z,18.70
2022-09-11T17:33:48.315Z,18.70
2022-09-11T17:36:18.531Z,18.70
2022-09-11T17:38:48.278Z,18.60
2022-09-11T17:41:16.630Z,18.60
2022-09-11T17:43:43.619Z,18.60
2022-09-11T17:46:14.938Z,18.60
2022-09-11T17:48:43.045Z,18.50
2022-09-11T17:51:27.826Z,18.50
2022-09-11T17:53:59.064Z,18.40
2022-09-11T17:56:30.922Z,18.40
2022-09-11T17:58:59.771Z,18.40
2022-09-11T18:01:28.775Z,18.40
2022-09-11T18:03:58.283Z,18.40
2022-09-11T18:06:29.297Z,18.40
2022-09-11T18:09:02.174Z,18.30
2022-09-11T18:12:52.371Z,18.30
2022-09-11T18:16:13.838Z,18.30
2022-09-11T18:18:43.430Z,18.20
2022-09-11T18:21:11.653Z,18.20
2022-09-11T18:23:40.542Z,18.20
2022-09-11T18:26:10.329Z,18.20
2022-09-11T18:28:39.771Z,18.20
2022-09-11T18:31:07.638Z,18.10
2022-09-11T18:33:34.820Z,18.10
2022-09-11T18:36:08.488Z,18.00
2022-09-11T18:38:35.969Z,18.00
2022-09-11T18:41:03.241Z,17.90
2022-09-11T18:43:30.055Z,17.90
2022-09-11T18:46:01.273Z,17.80
2022-09-11T18:48:28.363Z,17.70
2022-09-11T18:50:55.417Z,17.70
2022-09-11T18:53:22.346Z,17.60
2022-09-11T18:56:00.471Z,17.50
2022-09-11T18:58:34.997Z,17.40
2022-09-11T19:01:11.557Z,17.40
2022-09-11T19:03:40.261Z,17.30
2022-09-11T19:06:12.708Z,17.20
2022-09-11T19:08:41.202Z,17.20
2022-09-11T19:11:15.088Z,17.00
2022-09-11T19:13:43.444Z,17.00
2022-09-11T19:16:10.618Z,16.90
2022-09-11T19:18:39.093Z,17.00
2022-09-11T19:21:12.540Z,16.90
2022-09-11T19:23:42.121Z,16.80
2022-09-11T19:26:21.968Z,16.70
2022-09-11T19:28:50.416Z,16.60
2022-09-11T19:31:21.391Z,16.60
2022-09-11T19:33:51.277Z,16.60
2022-09-11T19:36:22.819Z,16.50
2022-09-11T19:38:51.787Z,16.50
2022-09-11T19:41:23.272Z,16.50
2022-09-11T19:43:50.797Z,16.40
2022-09-11T19:46:26.390Z,16.40
2022-09-11T19:48:56.954Z,16.40
2022-09-11T19:51:27.322Z,16.30
2022-09-11T19:53:56.521Z,16.30
2022-09-11T19:56:24.766Z,16.30
2022-09-11T19:58:52.068Z,16.20
2022-09-11T20:01:25.346Z,16.20
2022-09-11T20:03:54.367Z,16.10
2022-09-11T20:06:24.792Z,16.00
2022-09-11T20:09:07.651Z,16.00
2022-09-11T20:11:35.014Z,16.00
2022-09-11T20:14:02.190Z,16.00
2022-09-11T20:16:29.291Z,15.90
2022-09-11T20:19:00.481Z,16.00
2022-09-11T20:21:27.703Z,15.90
2022-09-11T20:23:55.631Z,15.90
2022-09-11T20:26:25.601Z,15.80
2022-09-11T20:28:54.683Z,15.80
2022-09-11T20:31:28.287Z,15.70
2022-09-11T20:33:55.791Z,15.70
2022-09-11T20:36:23.718Z,15.70
2022-09-11T20:38:52.437Z,15.70
2022-09-11T20:41:20.970Z,15.70
2022-09-11T20:43:47.998Z,15.60
2022-09-11T20:46:16.159Z,15.50
2022-09-11T20:48:43.173Z,15.50
2022-09-11T20:51:12.239Z,15.50
2022-09-11T20:53:41.785Z,15.50
2022-09-11T20:56:11.213Z,15.50
2022-09-11T20:58:38.897Z,15.40
2022-09-11T21:01:07.419Z,15.40
2022-09-11T21:03:34.646Z,15.40
2022-09-11T21:06:09.801Z,15.40
2022-09-11T21:08:36.936Z,15.30
2022-09-11T21:11:05.167Z,15.30
2022-09-11T21:13:37.340Z,15.20
2022-09-11T21:16:12.650Z,15.20
2022-09-11T21:18:44.211Z,15.20
2022-09-11T21:21:11.103Z,15.20
2022-09-11T21:23:37.937Z,15.20
2022-09-11T21:26:09.606Z,15.20
2022-09-11T21:28:36.743Z,15.10
2022-09-11T21:31:04.350Z,15.10
2022-09-11T21:33:33.513Z,15.10
2022-09-11T21:36:00.633Z,15.00
2022-09-11T21:38:29.574Z,15.00
2022-09-11T21:40:59.987Z,15.00
2022-09-11T21:43:27.449Z,14.90
2022-09-11T21:45:54.609Z,14.90
2022-09-11T21:48:21.594Z,14.90
2022-09-11T21:50:49.184Z,14.80
2022-09-11T21:53:20.515Z,14.80
2022-09-11T21:55:51.945Z,14.80
2022-09-11T21:58:21.048Z,14.80
2022-09-11T22:00:48.973Z,14.80
2022-09-11T22:03:18.359Z,14.70
2022-09-11T22:05:49.317Z,14.70
2022-09-11T22:08:19.354Z,14.70
2022-09-11T22:10:49.387Z,14.70
2022-09-11T22:13:18.422Z,14.70
2022-09-11T22:15:48.276Z,14.60
2022-09-11T22:18:16.354Z,14.50
2022-09-11T22:20:43.414Z,14.50
2022-09-11T22:23:16.383Z,14.60
2022-09-11T22:25:44.712Z,14.50
2022-09-11T22:28:12.558Z,14.50
2022-09-11T22:30:44.335Z,14.40
2022-09-11T22:33:11.363Z,14.40
2022-09-11T22:35:38.377Z,14.40
2022-09-11T22:38:05.284Z,14.40
2022-09-11T22:40:32.438Z,14.30
2022-09-11T22:42:59.611Z,14.30
2022-09-11T22:45:26.800Z,14.30
2022-09-11T22:47:53.676Z,14.30
2022-09-11T22:50:20.467Z,14.30
2022-09-11T22:52:47.267Z,14.30
2022-09-11T22:55:17.625Z,14.20
2022-09-11T22:57:44.365Z,14.20
2022-09-11T23:00:12.886Z,14.20
2022-09-11T23:02:39.676Z,14.10
2022-09-11T23:05:25.976Z,14.10
2022-09-11T23:07:53.936Z,14.10
2022-09-11T23:10:21.887Z,14.10
2022-09-11T23:12:48.846Z,14.00
2022-09-11T23:15:17.474Z,14.00
2022-09-11T23:17:44.518Z,14.00
2022-09-11T23:20:11.710Z,14.00
2022-09-11T23:22:38.605Z,13.90
2022-09-11T23:25:06.664Z,13.80
2022-09-11T23:27:33.423Z,13.80
2022-09-11T23:30:00.372Z,13.80
2022-09-11T23:32:27.187Z,13.80
2022-09-11T23:34:54.193Z,13.70
2022-09-11T23:37:21.215Z,13.80
2022-09-11T23:39:48.152Z,13.70
2022-09-11T23:42:15.284Z,13.70
2022-09-11T23:44:42.029Z,13.70
2022-09-11T23:47:09.111Z,13.70
2022-09-11T23:49:36.608Z,13.70
2022-09-11T23:52:04.670Z,13.70
2022-09-11T23:54:31.622Z,13.60
2022-09-11T23:56:59.052Z,13.60
2022-09-11T23:59:26.232Z,13.60
